Millwood, Missouri
Current Conditions -  °F | °C
As of 7:54 AM on Tuesday 27 Jan 2015 (Local Time) from KSET Reporting Station
Clear Clear  
Wind Chill: 27°   Ceiling: Unl
Heat Index: 34°   Visibility: 8mi
Dew Point: 32°   Wind: 8mph
Humidity: 92%   Direction: 300°WNW
Pressure: 30.1"   Gusts: NA
Location:  39.1404°N, 91.0631°W
Report Text: KSET 271354Z AUTO 30007KT 8SM CLR 01/00 A3010 RMK AO2 SLP195 T00110000
Loading
Personal Weather Stations






























Interactive Weather Map New forecast layout! Learn more

10-Day Weather Forecast

Advertisements
Track Severe Weather on mobile